sensor_id;sensor_type;location;lat;lon;timestamp;pressure;altitude;pressure_sealevel;temperature;humidity
7802;BME280;3945;48.952;9.506;2023-04-26T00:02:14;97969.28;;;7.19;91.26
7802;BME280;3945;48.952;9.506;2023-04-26T00:04:42;97977.03;;;7.14;90.64
7802;BME280;3945;48.952;9.506;2023-04-26T00:07:08;97972.41;;;7.10;90.98
7802;BME280;3945;48.952;9.506;2023-04-26T00:09:38;97961.44;;;7.06;90.61
7802;BME280;3945;48.952;9.506;2023-04-26T00:12:08;97973.47;;;7.02;90.07
7802;BME280;3945;48.952;9.506;2023-04-26T00:14:35;97974.34;;;6.96;90.87
7802;BME280;3945;48.952;9.506;2023-04-26T00:17:02;97981.47;;;6.95;89.98
7802;BME280;3945;48.952;9.506;2023-04-26T00:19:28;97969.31;;;6.88;89.96
7802;BME280;3945;48.952;9.506;2023-04-26T00:21:54;97974.28;;;6.78;90.02
7802;BME280;3945;48.952;9.506;2023-04-26T00:24:21;97968.47;;;6.69;90.42
7802;BME280;3945;48.952;9.506;2023-04-26T00:26:48;97971.94;;;6.63;90.36
7802;BME280;3945;48.952;9.506;2023-04-26T00:29:15;97972.59;;;6.58;90.05
7802;BME280;3945;48.952;9.506;2023-04-26T00:31:41;97976.31;;;6.51;90.61
7802;BME280;3945;48.952;9.506;2023-04-26T00:34:07;97977.56;;;6.48;90.76
7802;BME280;3945;48.952;9.506;2023-04-26T00:36:34;97975.13;;;6.47;91.92
7802;BME280;3945;48.952;9.506;2023-04-26T00:39:00;97976.16;;;6.46;91.15
7802;BME280;3945;48.952;9.506;2023-04-26T00:41:27;97969.22;;;6.45;91.34
7802;BME280;3945;48.952;9.506;2023-04-26T00:43:54;97963.13;;;6.44;91.83
7802;BME280;3945;48.952;9.506;2023-04-26T00:46:21;97965.63;;;6.39;91.75
7802;BME280;3945;48.952;9.506;2023-04-26T00:48:47;97972.13;;;6.37;91.54
7802;BME280;3945;48.952;9.506;2023-04-26T00:51:14;97969.94;;;6.34;91.34
7802;BME280;3945;48.952;9.506;2023-04-26T00:53:40;97971.97;;;6.32;91.65
7802;BME280;3945;48.952;9.506;2023-04-26T00:56:07;97978.69;;;6.27;91.62
7802;BME280;3945;48.952;9.506;2023-04-26T00:58:35;97977.28;;;6.25;91.43
7802;BME280;3945;48.952;9.506;2023-04-26T01:01:03;97980.94;;;6.24;91.81
7802;BME280;3945;48.952;9.506;2023-04-26T01:03:29;97991.06;;;6.27;91.82
7802;BME280;3945;48.952;9.506;2023-04-26T01:05:56;97989.06;;;6.22;91.39
7802;BME280;3945;48.952;9.506;2023-04-26T01:08:23;97997.84;;;6.16;90.64
7802;BME280;3945;48.952;9.506;2023-04-26T01:10:49;97990.97;;;6.09;90.42
7802;BME280;3945;48.952;9.506;2023-04-26T01:13:15;97995.06;;;6.05;91.08
7802;BME280;3945;48.952;9.506;2023-04-26T01:15:42;97992.66;;;5.97;90.51
7802;BME280;3945;48.952;9.506;2023-04-26T01:18:10;97996.72;;;5.86;90.74
7802;BME280;3945;48.952;9.506;2023-04-26T01:20:38;97996.75;;;5.79;90.73
7802;BME280;3945;48.952;9.506;2023-04-26T01:23:05;97990.28;;;5.75;90.70
7802;BME280;3945;48.952;9.506;2023-04-26T01:25:32;97999.41;;;5.73;90.97
7802;BME280;3945;48.952;9.506;2023-04-26T01:27:58;98005.09;;;5.70;90.81
7802;BME280;3945;48.952;9.506;2023-04-26T01:30:25;97989.06;;;5.65;90.65
7802;BME280;3945;48.952;9.506;2023-04-26T01:32:51;97993.38;;;5.59;90.90
7802;BME280;3945;48.952;9.506;2023-04-26T01:35:18;97993.19;;;5.54;90.66
7802;BME280;3945;48.952;9.506;2023-04-26T01:37:44;97983.22;;;5.49;91.12
7802;BME280;3945;48.952;9.506;2023-04-26T01:40:12;97992.97;;;5.42;91.17
7802;BME280;3945;48.952;9.506;2023-04-26T01:42:39;97986.91;;;5.35;91.38
7802;BME280;3945;48.952;9.506;2023-04-26T01:45:05;97982.66;;;5.34;91.29
7802;BME280;3945;48.952;9.506;2023-04-26T01:47:32;97983.47;;;5.28;91.28
7802;BME280;3945;48.952;9.506;2023-04-26T01:49:58;97987.75;;;5.23;91.11
7802;BME280;3945;48.952;9.506;2023-04-26T01:52:25;97973.56;;;5.17;91.42
7802;BME280;3945;48.952;9.506;2023-04-26T01:54:51;97977.03;;;5.11;91.36
7802;BME280;3945;48.952;9.506;2023-04-26T01:57:19;97981.06;;;5.07;91.92
7802;BME280;3945;48.952;9.506;2023-04-26T01:59:45;97985.31;;;5.08;91.80
7802;BME280;3945;48.952;9.506;2023-04-26T02:02:11;97979.84;;;5.09;92.24
7802;BME280;3945;48.952;9.506;2023-04-26T02:04:38;97974.59;;;5.09;92.28
7802;BME280;3945;48.952;9.506;2023-04-26T02:07:04;97983.88;;;5.12;92.22
7802;BME280;3945;48.952;9.506;2023-04-26T02:09:30;97980.66;;;5.17;92.18
7802;BME280;3945;48.952;9.506;2023-04-26T02:11:57;97987.34;;;5.19;92.55
7802;BME280;3945;48.952;9.506;2023-04-26T02:14:24;97989.97;;;5.19;92.36
7802;BME280;3945;48.952;9.506;2023-04-26T02:16:51;97988.56;;;5.23;92.65
7802;BME280;3945;48.952;9.506;2023-04-26T02:19:17;97984.91;;;5.24;92.44
7802;BME280;3945;48.952;9.506;2023-04-26T02:21:50;97984.69;;;5.19;92.56
7802;BME280;3945;48.952;9.506;2023-04-26T02:24:17;97988.78;;;5.15;92.52
7802;BME280;3945;48.952;9.506;2023-04-26T02:26:43;97987.75;;;5.16;92.44
7802;BME280;3945;48.952;9.506;2023-04-26T02:29:09;97980.44;;;5.11;92.51
7802;BME280;3945;48.952;9.506;2023-04-26T02:31:37;97987.34;;;5.13;92.50
7802;BME280;3945;48.952;9.506;2023-04-26T02:34:03;97985.31;;;5.15;92.51
7802;BME280;3945;48.952;9.506;2023-04-26T02:36:30;97983.31;;;5.10;92.67
7802;BME280;3945;48.952;9.506;2023-04-26T02:38:57;97988.78;;;5.08;92.65
7802;BME280;3945;48.952;9.506;2023-04-26T02:41:23;97986.13;;;5.08;92.70
7802;BME280;3945;48.952;9.506;2023-04-26T02:43:49;97986.53;;;5.05;92.55
7802;BME280;3945;48.952;9.506;2023-04-26T02:46:16;97988.59;;;5.03;92.86
7802;BME280;3945;48.952;9.506;2023-04-26T02:48:44;97978.03;;;5.03;92.69
7802;BME280;3945;48.952;9.506;2023-04-26T02:51:10;97971.94;;;5.03;92.71
7802;BME280;3945;48.952;9.506;2023-04-26T02:53:36;97976.22;;;5.04;93.01
7802;BME280;3945;48.952;9.506;2023-04-26T02:56:03;97980.06;;;5.01;92.93
7802;BME280;3945;48.952;9.506;2023-04-26T02:58:30;97973.34;;;4.99;93.15
7802;BME280;3945;48.952;9.506;2023-04-26T03:00:56;97979.06;;;4.96;93.24
7802;BME280;3945;48.952;9.506;2023-04-26T03:03:23;97982.09;;;4.93;93.31
7802;BME280;3945;48.952;9.506;2023-04-26T03:05:51;97979.06;;;4.96;93.38
7802;BME280;3945;48.952;9.506;2023-04-26T03:08:17;97982.69;;;4.95;93.36
7802;BME280;3945;48.952;9.506;2023-04-26T03:10:44;97982.91;;;4.93;93.46
7802;BME280;3945;48.952;9.506;2023-04-26T03:13:10;97995.28;;;4.93;93.57
7802;BME280;3945;48.952;9.506;2023-04-26T03:15:37;97992.63;;;4.93;93.27
7802;BME280;3945;48.952;9.506;2023-04-26T03:18:03;97988.38;;;4.92;93.44
7802;BME280;3945;48.952;9.506;2023-04-26T03:20:29;97992.25;;;4.89;93.15
7802;BME280;3945;48.952;9.506;2023-04-26T03:22:57;97992.63;;;4.86;93.40
7802;BME280;3945;48.952;9.506;2023-04-26T03:25:23;97989.81;;;4.81;93.15
7802;BME280;3945;48.952;9.506;2023-04-26T03:27:50;97987.97;;;4.75;92.98
7802;BME280;3945;48.952;9.506;2023-04-26T03:30:16;97989.38;;;4.71;92.75
7802;BME280;3945;48.952;9.506;2023-04-26T03:32:43;97989.81;;;4.68;92.98
7802;BME280;3945;48.952;9.506;2023-04-26T03:35:09;98003.19;;;4.66;93.07
7802;BME280;3945;48.952;9.506;2023-04-26T03:37:35;97995.28;;;4.66;92.72
7802;BME280;3945;48.952;9.506;2023-04-26T03:40:05;98000.94;;;4.63;92.38
7802;BME280;3945;48.952;9.506;2023-04-26T03:42:32;98001.13;;;4.62;92.48
7802;BME280;3945;48.952;9.506;2023-04-26T03:44:59;98008.22;;;4.61;92.41
7802;BME280;3945;48.952;9.506;2023-04-26T03:47:25;98001.34;;;4.60;92.36
7802;BME280;3945;48.952;9.506;2023-04-26T03:49:52;98005.81;;;4.60;91.78
7802;BME280;3945;48.952;9.506;2023-04-26T03:52:18;98008.44;;;4.60;91.70
7802;BME280;3945;48.952;9.506;2023-04-26T03:54:44;98006.38;;;4.55;91.51
7802;BME280;3945;48.952;9.506;2023-04-26T03:57:12;98001.53;;;4.52;91.83
7802;BME280;3945;48.952;9.506;2023-04-26T03:59:39;97999.28;;;4.49;91.40
7802;BME280;3945;48.952;9.506;2023-04-26T04:02:05;97998.28;;;4.44;91.38
7802;BME280;3945;48.952;9.506;2023-04-26T04:04:31;98001.72;;;4.38;91.33
7802;BME280;3945;48.952;9.506;2023-04-26T04:06:58;98006.97;;;4.31;91.13
7802;BME280;3945;48.952;9.506;2023-04-26T04:09:24;98009.56;;;4.24;90.97
7802;BME280;3945;48.952;9.506;2023-04-26T04:11:51;98015.03;;;4.16;90.61
7802;BME280;3945;48.952;9.506;2023-04-26T04:14:18;98016.22;;;4.14;90.97
7802;BME280;3945;48.952;9.506;2023-04-26T04:16:45;98010.94;;;4.07;91.02
7802;BME280;3945;48.952;9.506;2023-04-26T04:19:11;98005.66;;;4.01;90.78
7802;BME280;3945;48.952;9.506;2023-04-26T04:21:38;97999.13;;;3.97;91.01
7802;BME280;3945;48.952;9.506;2023-04-26T04:24:07;98006.81;;;3.91;90.88
7802;BME280;3945;48.952;9.506;2023-04-26T04:26:33;98002.34;;;3.85;91.15
7802;BME280;3945;48.952;9.506;2023-04-26T04:28:59;98007.56;;;3.79;90.94
7802;BME280;3945;48.952;9.506;2023-04-26T04:31:33;98009.75;;;3.75;91.35
7802;BME280;3945;48.952;9.506;2023-04-26T04:34:00;98001.47;;;3.72;91.15
7802;BME280;3945;48.952;9.506;2023-04-26T04:36:26;98003.25;;;3.65;91.09
7802;BME280;3945;48.952;9.506;2023-04-26T04:38:53;98008.88;;;3.62;91.21
7802;BME280;3945;48.952;9.506;2023-04-26T04:41:19;98013.56;;;3.60;91.80
7802;BME280;3945;48.952;9.506;2023-04-26T04:43:47;98014.78;;;3.64;91.68
7802;BME280;3945;48.952;9.506;2023-04-26T04:46:14;98014.38;;;3.60;91.63
7802;BME280;3945;48.952;9.506;2023-04-26T04:48:41;98021.22;;;3.61;91.84
7802;BME280;3945;48.952;9.506;2023-04-26T04:51:08;98015.78;;;3.63;92.16
7802;BME280;3945;48.952;9.506;2023-04-26T04:53:34;98015.59;;;3.64;91.76
7802;BME280;3945;48.952;9.506;2023-04-26T04:56:01;98007.31;;;3.67;92.43
7802;BME280;3945;48.952;9.506;2023-04-26T04:58:27;98016.63;;;3.70;92.18
7802;BME280;3945;48.952;9.506;2023-04-26T05:00:54;98018.69;;;3.74;92.36
7802;BME280;3945;48.952;9.506;2023-04-26T05:03:20;98026.00;;;3.79;92.12
7802;BME280;3945;48.952;9.506;2023-04-26T05:05:48;98024.22;;;3.86;92.10
7802;BME280;3945;48.952;9.506;2023-04-26T05:08:14;98031.94;;;3.94;92.23
7802;BME280;3945;48.952;9.506;2023-04-26T05:10:41;98033.16;;;3.98;92.57
7802;BME280;3945;48.952;9.506;2023-04-26T05:13:07;98039.06;;;4.00;93.27
7802;BME280;3945;48.952;9.506;2023-04-26T05:15:33;98039.47;;;4.04;93.43
7802;BME280;3945;48.952;9.506;2023-04-26T05:18:00;98043.97;;;4.10;93.31
7802;BME280;3945;48.952;9.506;2023-04-26T05:20:26;98043.56;;;4.13;93.61
7802;BME280;3945;48.952;9.506;2023-04-26T05:22:54;98047.22;;;4.18;93.00
7802;BME280;3945;48.952;9.506;2023-04-26T05:25:21;98046.03;;;4.27;93.38
7802;BME280;3945;48.952;9.506;2023-04-26T05:27:47;98052.56;;;4.31;93.64
7802;BME280;3945;48.952;9.506;2023-04-26T05:30:13;98059.84;;;4.36;93.44
7802;BME280;3945;48.952;9.506;2023-04-26T05:32:40;98060.50;;;4.45;93.49
7802;BME280;3945;48.952;9.506;2023-04-26T05:35:07;98065.16;;;4.56;93.31
7802;BME280;3945;48.952;9.506;2023-04-26T05:37:33;98058.72;;;4.65;93.58
7802;BME280;3945;48.952;9.506;2023-04-26T05:40:01;98061.16;;;4.73;93.89
7802;BME280;3945;48.952;9.506;2023-04-26T05:42:28;98070.09;;;4.85;93.94
7802;BME280;3945;48.952;9.506;2023-04-26T05:44:55;98065.66;;;4.99;94.29
7802;BME280;3945;48.952;9.506;2023-04-26T05:47:22;98066.69;;;5.18;94.09
7802;BME280;3945;48.952;9.506;2023-04-26T05:49:48;98066.69;;;5.37;94.44
7802;BME280;3945;48.952;9.506;2023-04-26T05:52:14;98070.53;;;5.61;94.37
7802;BME280;3945;48.952;9.506;2023-04-26T05:54:41;98074.31;;;5.92;94.09
7802;BME280;3945;48.952;9.506;2023-04-26T05:57:08;98073.81;;;6.21;92.37
7802;BME280;3945;48.952;9.506;2023-04-26T05:59:35;98067.44;;;6.48;91.22
7802;BME280;3945;48.952;9.506;2023-04-26T06:02:01;98068.72;;;6.71;90.19
7802;BME280;3945;48.952;9.506;2023-04-26T06:04:28;98065.09;;;6.96;89.85
7802;BME280;3945;48.952;9.506;2023-04-26T06:06:55;98074.47;;;7.24;88.29
7802;BME280;3945;48.952;9.506;2023-04-26T06:09:22;98073.81;;;7.53;86.66
7802;BME280;3945;48.952;9.506;2023-04-26T06:11:48;98072.53;;;7.80;85.81
7802;BME280;3945;48.952;9.506;2023-04-26T06:14:16;98076.50;;;8.08;84.84
7802;BME280;3945;48.952;9.506;2023-04-26T06:16:42;98075.44;;;8.34;84.01
7802;BME280;3945;48.952;9.506;2023-04-26T06:19:08;98071.41;;;8.61;83.19
7802;BME280;3945;48.952;9.506;2023-04-26T06:21:35;98073.69;;;8.87;82.59
7802;BME280;3945;48.952;9.506;2023-04-26T06:24:01;98060.88;;;9.14;81.31
7802;BME280;3945;48.952;9.506;2023-04-26T06:26:27;98064.94;;;9.40;77.79
7802;BME280;3945;48.952;9.506;2023-04-26T06:28:54;98069.78;;;9.66;76.98
7802;BME280;3945;48.952;9.506;2023-04-26T06:31:22;98065.28;;;9.90;74.96
7802;BME280;3945;48.952;9.506;2023-04-26T06:33:49;98070.22;;;10.10;75.64
7802;BME280;3945;48.952;9.506;2023-04-26T06:36:15;98072.41;;;10.25;75.91
7802;BME280;3945;48.952;9.506;2023-04-26T06:38:41;98074.13;;;10.42;75.43
7802;BME280;3945;48.952;9.506;2023-04-26T06:41:08;98076.72;;;10.66;74.57
7802;BME280;3945;48.952;9.506;2023-04-26T06:43:34;98089.34;;;10.87;72.60
7802;BME280;3945;48.952;9.506;2023-04-26T06:46:00;98088.16;;;11.11;72.40
7802;BME280;3945;48.952;9.506;2023-04-26T06:48:28;98081.44;;;11.37;72.53
7802;BME280;3945;48.952;9.506;2023-04-26T06:50:54;98079.09;;;11.57;69.51
7802;BME280;3945;48.952;9.506;2023-04-26T06:53:21;98083.94;;;11.77;68.92
7802;BME280;3945;48.952;9.506;2023-04-26T06:55:47;98085.16;;;11.86;68.44
7802;BME280;3945;48.952;9.506;2023-04-26T06:58:13;98087.13;;;11.96;69.34
7802;BME280;3945;48.952;9.506;2023-04-26T07:00:40;98095.34;;;12.11;68.72
7802;BME280;3945;48.952;9.506;2023-04-26T07:03:06;98081.91;;;12.23;68.52
7802;BME280;3945;48.952;9.506;2023-04-26T07:05:34;98087.63;;;12.31;66.21
7802;BME280;3945;48.952;9.506;2023-04-26T07:08:00;98077.06;;;12.41;66.56
7802;BME280;3945;48.952;9.506;2023-04-26T07:10:27;98075.78;;;12.22;64.08
7802;BME280;3945;48.952;9.506;2023-04-26T07:12:53;98080.13;;;12.28;65.59
7802;BME280;3945;48.952;9.506;2023-04-26T07:15:19;98067.63;;;12.56;64.65
7802;BME280;3945;48.952;9.506;2023-04-26T07:17:46;98064.97;;;12.82;62.83
7802;BME280;3945;48.952;9.506;2023-04-26T07:20:12;98068.59;;;12.98;63.08
7802;BME280;3945;48.952;9.506;2023-04-26T07:22:45;98071.22;;;13.15;61.46
7802;BME280;3945;48.952;9.506;2023-04-26T07:25:11;98063.56;;;13.23;61.19
7802;BME280;3945;48.952;9.506;2023-04-26T07:27:37;98055.66;;;13.12;59.57
7802;BME280;3945;48.952;9.506;2023-04-26T07:30:04;98058.09;;;13.13;61.45
7802;BME280;3945;48.952;9.506;2023-04-26T07:32:31;98053.19;;;13.05;59.98
7802;BME280;3945;48.952;9.506;2023-04-26T07:34:57;98057.66;;;13.21;59.74
7802;BME280;3945;48.952;9.506;2023-04-26T07:37:23;98049.75;;;13.37;59.37
7802;BME280;3945;48.952;9.506;2023-04-26T07:39:51;98052.78;;;13.45;56.39
7802;BME280;3945;48.952;9.506;2023-04-26T07:42:17;98053.94;;;13.27;56.64
7802;BME280;3945;48.952;9.506;2023-04-26T07:44:44;98046.34;;;13.14;58.56
7802;BME280;3945;48.952;9.506;2023-04-26T07:47:12;98052.00;;;13.18;60.58
7802;BME280;3945;48.952;9.506;2023-04-26T07:49:39;98047.00;;;13.26;59.96
7802;BME280;3945;48.952;9.506;2023-04-26T07:54:33;98052.88;;;13.28;58.69
7802;BME280;3945;48.952;9.506;2023-04-26T07:57:00;98050.31;;;13.12;59.04
7802;BME280;3945;48.952;9.506;2023-04-26T07:59:27;98051.50;;;12.94;59.60
7802;BME280;3945;48.952;9.506;2023-04-26T08:01:53;98058.25;;;12.75;58.89
7802;BME280;3945;48.952;9.506;2023-04-26T08:04:28;98051.13;;;12.59;57.17
7802;BME280;3945;48.952;9.506;2023-04-26T08:06:54;98053.03;;;12.63;56.75
7802;BME280;3945;48.952;9.506;2023-04-26T08:09:21;98063.66;;;12.58;56.10
7802;BME280;3945;48.952;9.506;2023-04-26T08:11:47;98062.81;;;12.79;58.76
7802;BME280;3945;48.952;9.506;2023-04-26T08:14:15;98052.06;;;13.23;55.48
7802;BME280;3945;48.952;9.506;2023-04-26T08:16:42;98055.03;;;13.63;52.63
7802;BME280;3945;48.952;9.506;2023-04-26T08:19:08;98047.50;;;13.97;51.43
7802;BME280;3945;48.952;9.506;2023-04-26T08:21:34;98050.06;;;14.29;48.52
7802;BME280;3945;48.952;9.506;2023-04-26T08:24:01;98050.97;;;14.55;52.87
7802;BME280;3945;48.952;9.506;2023-04-26T08:26:28;98053.97;;;14.69;46.44
7802;BME280;3945;48.952;9.506;2023-04-26T08:28:54;98057.47;;;14.79;49.19
7802;BME280;3945;48.952;9.506;2023-04-26T08:31:22;98048.88;;;14.77;50.16
7802;BME280;3945;48.952;9.506;2023-04-26T08:33:48;98053.50;;;14.97;51.31
7802;BME280;3945;48.952;9.506;2023-04-26T08:36:15;98053.25;;;15.29;50.33
7802;BME280;3945;48.952;9.506;2023-04-26T08:38:41;98055.94;;;15.49;52.02
7802;BME280;3945;48.952;9.506;2023-04-26T08:41:08;98050.88;;;15.63;49.00
7802;BME280;3945;48.952;9.506;2023-04-26T08:43:34;98063.47;;;15.83;50.61
7802;BME280;3945;48.952;9.506;2023-04-26T08:46:02;98063.09;;;16.15;49.14
7802;BME280;3945;48.952;9.506;2023-04-26T08:48:33;98065.97;;;16.44;48.89
7802;BME280;3945;48.952;9.506;2023-04-26T08:51:01;98068.84;;;16.67;49.41
7802;BME280;3945;48.952;9.506;2023-04-26T08:53:29;98055.06;;;16.79;46.69
7802;BME280;3945;48.952;9.506;2023-04-26T08:55:56;98057.97;;;16.93;48.43
7802;BME280;3945;48.952;9.506;2023-04-26T08:58:23;98057.84;;;17.08;44.26
7802;BME280;3945;48.952;9.506;2023-04-26T09:00:49;98059.25;;;17.00;43.37
7802;BME280;3945;48.952;9.506;2023-04-26T09:03:16;98065.53;;;16.81;44.59
7802;BME280;3945;48.952;9.506;2023-04-26T09:05:44;98060.66;;;16.93;42.35
7802;BME280;3945;48.952;9.506;2023-04-26T09:08:11;98057.09;;;17.02;43.90
7802;BME280;3945;48.952;9.506;2023-04-26T09:10:38;98049.56;;;17.04;40.91
7802;BME280;3945;48.952;9.506;2023-04-26T09:13:04;98043.50;;;17.23;43.13
7802;BME280;3945;48.952;9.506;2023-04-26T09:15:31;98043.25;;;17.53;44.24
7802;BME280;3945;48.952;9.506;2023-04-26T09:18:01;98038.56;;;17.69;42.96
7802;BME280;3945;48.952;9.506;2023-04-26T09:20:41;98043.09;;;17.73;42.38
7802;BME280;3945;48.952;9.506;2023-04-26T09:23:09;98042.53;;;17.42;40.26
7802;BME280;3945;48.952;9.506;2023-04-26T09:25:35;98043.81;;;17.16;39.03
7802;BME280;3945;48.952;9.506;2023-04-26T09:28:03;98031.59;;;16.95;40.57
7802;BME280;3945;48.952;9.506;2023-04-26T09:30:29;98035.25;;;16.70;40.32
7802;BME280;3945;48.952;9.506;2023-04-26T09:32:56;98040.81;;;16.84;41.52
7802;BME280;3945;48.952;9.506;2023-04-26T09:35:27;98050.81;;;16.73;41.87
7802;BME280;3945;48.952;9.506;2023-04-26T09:37:54;98045.94;;;16.80;44.47
7802;BME280;3945;48.952;9.506;2023-04-26T09:40:25;98046.59;;;17.06;44.25
7802;BME280;3945;48.952;9.506;2023-04-26T09:42:55;98035.75;;;17.16;43.33
7802;BME280;3945;48.952;9.506;2023-04-26T09:45:22;98028.09;;;17.33;42.49
7802;BME280;3945;48.952;9.506;2023-04-26T09:47:49;98022.31;;;17.50;42.22
7802;BME280;3945;48.952;9.506;2023-04-26T09:50:24;98023.59;;;17.24;41.91
7802;BME280;3945;48.952;9.506;2023-04-26T09:52:51;98027.28;;;16.99;41.59
7802;BME280;3945;48.952;9.506;2023-04-26T09:55:23;98027.56;;;16.97;41.84
7802;BME280;3945;48.952;9.506;2023-04-26T09:57:51;98018.50;;;16.83;40.99
7802;BME280;3945;48.952;9.506;2023-04-26T10:00:17;98019.09;;;16.75;40.03
7802;BME280;3945;48.952;9.506;2023-04-26T10:02:45;98023.16;;;16.57;41.56
7802;BME280;3945;48.952;9.506;2023-04-26T10:05:11;98023.75;;;16.54;42.67
7802;BME280;3945;48.952;9.506;2023-04-26T10:07:38;98022.09;;;16.68;43.51
7802;BME280;3945;48.952;9.506;2023-04-26T10:10:05;98018.88;;;16.66;46.51
7802;BME280;3945;48.952;9.506;2023-04-26T10:12:33;98010.75;;;16.71;41.61
7802;BME280;3945;48.952;9.506;2023-04-26T10:15:00;98018.06;;;16.71;42.22
7802;BME280;3945;48.952;9.506;2023-04-26T10:17:28;98020.16;;;16.74;44.43
7802;BME280;3945;48.952;9.506;2023-04-26T10:19:56;98017.44;;;16.84;42.92
7802;BME280;3945;48.952;9.506;2023-04-26T10:22:24;98020.75;;;16.71;43.38
7802;BME280;3945;48.952;9.506;2023-04-26T10:24:52;98024.00;;;16.63;41.92
7802;BME280;3945;48.952;9.506;2023-04-26T10:30:07;98019.72;;;16.52;40.62
7802;BME280;3945;48.952;9.506;2023-04-26T10:35:15;98022.81;;;16.20;43.17
7802;BME280;3945;48.952;9.506;2023-04-26T10:40:30;98021.81;;;16.06;41.02
7802;BME280;3945;48.952;9.506;2023-04-26T10:45:40;98012.69;;;16.66;43.25
7802;BME280;3945;48.952;9.506;2023-04-26T10:48:13;98017.03;;;17.01;42.73
7802;BME280;3945;48.952;9.506;2023-04-26T10:53:29;98009.59;;;17.27;43.25
7802;BME280;3945;48.952;9.506;2023-04-26T10:55:56;98004.53;;;17.15;42.04
7802;BME280;3945;48.952;9.506;2023-04-26T10:58:25;98008.03;;;16.82;41.82
7802;BME280;3945;48.952;9.506;2023-04-26T11:01:06;98018.94;;;16.46;40.85
7802;BME280;3945;48.952;9.506;2023-04-26T11:03:35;98003.19;;;16.24;42.49
7802;BME280;3945;48.952;9.506;2023-04-26T11:06:04;98005.59;;;16.31;43.80
7802;BME280;3945;48.952;9.506;2023-04-26T11:08:31;97998.50;;;16.55;43.50
7802;BME280;3945;48.952;9.506;2023-04-26T11:11:06;97992.53;;;16.58;41.45
7802;BME280;3945;48.952;9.506;2023-04-26T11:13:36;97995.22;;;16.68;42.48
7802;BME280;3945;48.952;9.506;2023-04-26T11:16:03;97986.75;;;16.90;43.24
7802;BME280;3945;48.952;9.506;2023-04-26T11:18:31;97988.13;;;17.16;40.63
7802;BME280;3945;48.952;9.506;2023-04-26T11:20:58;97984.78;;;17.35;41.03
7802;BME280;3945;48.952;9.506;2023-04-26T11:23:24;97981.13;;;17.49;42.61
7802;BME280;3945;48.952;9.506;2023-04-26T11:25:51;97983.38;;;17.37;37.77
7802;BME280;3945;48.952;9.506;2023-04-26T11:28:19;97976.91;;;17.38;37.53
7802;BME280;3945;48.952;9.506;2023-04-26T11:30:46;97967.03;;;17.34;38.19
7802;BME280;3945;48.952;9.506;2023-04-26T11:33:16;97970.59;;;17.24;39.30
7802;BME280;3945;48.952;9.506;2023-04-26T11:35:45;97964.34;;;17.00;37.28
7802;BME280;3945;48.952;9.506;2023-04-26T11:38:12;97960.88;;;16.94;42.19
7802;BME280;3945;48.952;9.506;2023-04-26T11:40:39;97966.09;;;16.86;37.20
7802;BME280;3945;48.952;9.506;2023-04-26T11:43:06;97955.00;;;16.92;38.84
7802;BME280;3945;48.952;9.506;2023-04-26T11:45:34;97951.78;;;16.90;40.27
7802;BME280;3945;48.952;9.506;2023-04-26T11:48:01;97953.22;;;16.77;39.67
7802;BME280;3945;48.952;9.506;2023-04-26T11:50:28;97950.53;;;16.77;40.53
7802;BME280;3945;48.952;9.506;2023-04-26T11:52:58;97948.13;;;16.76;41.30
7802;BME280;3945;48.952;9.506;2023-04-26T11:55:26;97944.44;;;16.67;41.83
7802;BME280;3945;48.952;9.506;2023-04-26T11:57:53;97949.84;;;16.57;40.16
7802;BME280;3945;48.952;9.506;2023-04-26T12:00:19;97944.75;;;16.55;40.43
7802;BME280;3945;48.952;9.506;2023-04-26T12:02:46;97938.41;;;16.80;42.83
7802;BME280;3945;48.952;9.506;2023-04-26T12:05:22;97936.34;;;17.06;40.15
7802;BME280;3945;48.952;9.506;2023-04-26T12:07:49;97944.91;;;17.37;38.25
7802;BME280;3945;48.952;9.506;2023-04-26T12:10:18;97932.22;;;17.71;37.59
7802;BME280;3945;48.952;9.506;2023-04-26T12:12:48;97938.47;;;18.09;36.77
7802;BME280;3945;48.952;9.506;2023-04-26T12:15:15;97933.84;;;18.15;36.25
7802;BME280;3945;48.952;9.506;2023-04-26T12:17:50;97941.88;;;17.96;39.40
7802;BME280;3945;48.952;9.506;2023-04-26T12:20:17;97943.41;;;18.02;39.92
7802;BME280;3945;48.952;9.506;2023-04-26T12:22:55;97931.38;;;18.18;39.59
7802;BME280;3945;48.952;9.506;2023-04-26T12:25:23;97929.34;;;18.29;38.56
7802;BME280;3945;48.952;9.506;2023-04-26T12:27:49;97931.31;;;18.42;35.87
7802;BME280;3945;48.952;9.506;2023-04-26T12:30:15;97923.78;;;18.63;34.45
7802;BME280;3945;48.952;9.506;2023-04-26T12:32:42;97929.91;;;19.01;40.44
7802;BME280;3945;48.952;9.506;2023-04-26T12:35:08;97926.41;;;19.00;36.30
7802;BME280;3945;48.952;9.506;2023-04-26T12:37:34;97927.03;;;19.11;35.71
7802;BME280;3945;48.952;9.506;2023-04-26T12:40:01;97924.84;;;19.13;35.35
7802;BME280;3945;48.952;9.506;2023-04-26T12:42:28;97919.72;;;18.98;34.99
7802;BME280;3945;48.952;9.506;2023-04-26T12:44:55;97916.00;;;18.19;34.34
7802;BME280;3945;48.952;9.506;2023-04-26T12:47:22;97921.16;;;17.73;37.11
7802;BME280;3945;48.952;9.506;2023-04-26T12:49:48;97913.44;;;17.37;39.82
7802;BME280;3945;48.952;9.506;2023-04-26T12:52:14;97923.91;;;16.81;38.21
7802;BME280;3945;48.952;9.506;2023-04-26T12:54:41;97921.13;;;16.91;38.73
7802;BME280;3945;48.952;9.506;2023-04-26T12:57:07;97919.13;;;17.07;38.18
7802;BME280;3945;48.952;9.506;2023-04-26T12:59:35;97918.72;;;17.47;40.56
7802;BME280;3945;48.952;9.506;2023-04-26T13:02:02;97916.47;;;17.83;38.50
7802;BME280;3945;48.952;9.506;2023-04-26T13:04:28;97914.63;;;18.21;39.61
7802;BME280;3945;48.952;9.506;2023-04-26T13:06:55;97911.44;;;18.38;36.53
7802;BME280;3945;48.952;9.506;2023-04-26T13:09:21;97917.56;;;18.44;35.87
7802;BME280;3945;48.952;9.506;2023-04-26T13:11:47;97912.47;;;18.61;37.86
7802;BME280;3945;48.952;9.506;2023-04-26T13:14:14;97914.72;;;18.73;35.94
7802;BME280;3945;48.952;9.506;2023-04-26T13:16:41;97916.97;;;18.84;36.66
7802;BME280;3945;48.952;9.506;2023-04-26T13:19:08;97915.69;;;18.95;36.46
7802;BME280;3945;48.952;9.506;2023-04-26T13:21:34;97907.13;;;18.93;35.42
7802;BME280;3945;48.952;9.506;2023-04-26T13:24:00;97915.09;;;18.66;34.81
7802;BME280;3945;48.952;9.506;2023-04-26T13:26:27;97915.59;;;18.49;36.54
7802;BME280;3945;48.952;9.506;2023-04-26T13:28:53;97911.34;;;18.24;34.20
7802;BME280;3945;48.952;9.506;2023-04-26T13:31:20;97911.69;;;17.99;36.16
7802;BME280;3945;48.952;9.506;2023-04-26T13:33:48;97903.53;;;18.04;37.21
7802;BME280;3945;48.952;9.506;2023-04-26T13:36:14;97905.06;;;18.10;37.12
7802;BME280;3945;48.952;9.506;2023-04-26T13:38:41;97897.72;;;18.16;35.97
7802;BME280;3945;48.952;9.506;2023-04-26T13:41:09;97899.56;;;18.20;34.02
7802;BME280;3945;48.952;9.506;2023-04-26T13:43:36;97895.25;;;18.01;35.24